Time;durP1;ratioP1;P1;durP2;ratioP2;P2;SDS_P1;SDS_P2;PMS_P1;PMS_P2;Temp;Humidity;BMP_temperature;BMP_pressure;BME280_temperature;BME280_humidity;BME280_pressure;Samples;Min_cycle;Max_cycle;Signal;HPM_P1;HPM_P2
2023/09/27 00:02:25;;;;;;;;;;;;;;;21.59;60.30;101618.72;4918808;29;6045;-70
2023/09/27 00:04:51;;;;;;;;;;;;;;;21.59;60.03;101618.72;4919445;29;2338;-69
2023/09/27 00:07:18;;;;;;;;;;;;;;;21.59;60.21;101609.34;4917683;29;2405;-70
2023/09/27 00:09:44;;;;;;;;;;;;;;;21.60;60.21;101616.59;4921354;29;1944;-65
2023/09/27 00:12:11;;;;;;;;;;;;;;;21.59;60.23;101607.19;4916427;29;2402;-63
2023/09/27 00:14:37;;;;;;;;;;;;;;;21.60;60.08;101613.69;4919302;29;2305;-63
2023/09/27 00:17:03;;;;;;;;;;;;;;;21.58;60.09;101614.34;4917224;29;2266;-63
2023/09/27 00:19:30;;;;;;;;;;;;;;;21.59;60.19;101618.72;4919647;29;2136;-63
2023/09/27 00:21:57;;;;;;;;;;;;;;;21.59;60.06;101618.72;4918846;29;2234;-63
2023/09/27 00:24:23;;;;;;;;;;;;;;;21.58;60.00;101608.59;4916977;29;2246;-63
2023/09/27 00:26:50;;;;;;;;;;;;;;;21.59;60.03;101615.84;4917846;29;2265;-63
2023/09/27 00:29:16;;;;;;;;;;;;;;;21.59;59.94;101612.97;4918169;29;2233;-63
2023/09/27 00:31:43;;;;;;;;;;;;;;;21.58;60.15;101616.47;4917955;29;6319;-63
2023/09/27 00:34:09;;;;;;;;;;;;;;;21.58;60.11;101599.19;4917815;29;2223;-63
2023/09/27 00:36:35;;;;;;;;;;;;;;;21.57;60.11;101604.19;4917414;29;2495;-63
2023/09/27 00:39:03;;;;;;;;;;;;;;;21.57;60.00;101609.97;4917805;29;2301;-63
2023/09/27 00:41:29;;;;;;;;;;;;;;;21.57;59.79;101598.44;4916223;29;2273;-63
2023/09/27 00:43:56;;;;;;;;;;;;;;;21.58;60.13;101614.34;4919014;29;2217;-63
2023/09/27 00:46:22;;;;;;;;;;;;;;;21.59;59.77;101618.72;4915708;29;2290;-63
2023/09/27 00:48:49;;;;;;;;;;;;;;;21.58;59.79;101611.47;4919425;29;2305;-63
2023/09/27 00:51:15;;;;;;;;;;;;;;;21.57;59.92;101615.72;4893751;29;1810;-63
2023/09/27 00:53:42;;;;;;;;;;;;;;;21.58;59.91;101620.13;4919358;29;2427;-63
2023/09/27 00:56:08;;;;;;;;;;;;;;;21.58;59.90;101611.47;4895906;29;2353;-63
2023/09/27 00:58:35;;;;;;;;;;;;;;;21.57;59.89;101620.75;4920386;29;2373;-63
2023/09/27 01:01:02;;;;;;;;;;;;;;;21.57;59.97;101615.72;4918900;29;6334;-63
2023/09/27 01:03:29;;;;;;;;;;;;;;;21.57;60.12;101617.88;4895931;29;2350;-63
2023/09/27 01:05:56;;;;;;;;;;;;;;;21.56;59.81;101614.25;4918680;29;2345;-63
2023/09/27 01:08:22;;;;;;;;;;;;;;;21.56;59.69;101616.38;4880849;29;2404;-63
2023/09/27 01:10:48;;;;;;;;;;;;;;;21.56;60.01;101614.25;4920305;29;1978;-63
2023/09/27 01:13:17;;;;;;;;;;;;;;;21.56;59.75;101614.25;4915706;29;2391;-63
2023/09/27 01:15:43;;;;;;;;;;;;;;;21.55;59.73;101618.50;4898024;29;1816;-63
2023/09/27 01:18:10;;;;;;;;;;;;;;;21.55;59.92;101618.50;4918146;29;2386;-63
2023/09/27 01:20:36;;;;;;;;;;;;;;;21.55;59.86;101615.63;4918455;29;2138;-63
2023/09/27 01:23:03;;;;;;;;;;;;;;;21.56;59.66;101617.13;4917476;29;2474;-63
2023/09/27 01:25:30;;;;;;;;;;;;;;;21.54;59.63;101617.75;4918719;29;2257;-63
2023/09/27 01:27:57;;;;;;;;;;;;;;;21.54;59.72;101617.00;4912634;29;2514;-63
2023/09/27 01:30:25;;;;;;;;;;;;;;;21.54;59.70;101617.00;4913562;29;6073;-63
2023/09/27 01:32:51;;;;;;;;;;;;;;;21.54;59.62;101622.78;4915530;29;2419;-63
2023/09/27 01:35:18;;;;;;;;;;;;;;;21.54;59.78;101617.00;4914551;29;2375;-63
2023/09/27 01:37:45;;;;;;;;;;;;;;;21.52;59.61;101619.78;4921245;29;2333;-63
2023/09/27 01:40:15;;;;;;;;;;;;;;;21.54;59.63;101617.00;4899304;29;2214;-63
2023/09/27 01:42:43;;;;;;;;;;;;;;;21.53;59.69;101618.38;4921847;29;2300;-63
2023/09/27 01:45:10;;;;;;;;;;;;;;;21.53;59.57;101615.50;4921894;29;2151;-63
2023/09/27 01:47:37;;;;;;;;;;;;;;;21.51;59.92;101618.31;4921915;29;2219;-63
2023/09/27 01:50:05;;;;;;;;;;;;;;;21.52;59.78;101606.13;4903112;29;2347;-63
2023/09/27 01:52:32;;;;;;;;;;;;;;;21.52;59.90;101614.03;4897470;29;2404;-63
2023/09/27 01:54:58;;;;;;;;;;;;;;;21.52;59.72;101608.25;4921640;29;2351;-63
2023/09/27 01:57:24;;;;;;;;;;;;;;;21.52;59.49;101608.25;4919524;29;2358;-63
2023/09/27 01:59:51;;;;;;;;;;;;;;;21.53;59.84;101609.75;4901178;29;2426;-63
2023/09/27 02:02:18;;;;;;;;;;;;;;;21.52;59.87;101602.50;4896848;29;6133;-63
2023/09/27 02:04:44;;;;;;;;;;;;;;;21.51;59.57;101607.53;4921022;29;2186;-63
2023/09/27 02:07:11;;;;;;;;;;;;;;;21.51;59.63;101606.78;4920167;29;2344;-63
2023/09/27 02:09:37;;;;;;;;;;;;;;;21.51;59.59;101598.88;4920203;29;2353;-63
2023/09/27 02:12:04;;;;;;;;;;;;;;;21.51;59.57;101606.78;4919466;29;2108;-63
2023/09/27 02:14:30;;;;;;;;;;;;;;;21.51;59.63;101624.06;4920218;29;2369;-63
2023/09/27 02:16:57;;;;;;;;;;;;;;;21.50;59.61;101625.44;4898139;29;2244;-63
2023/09/27 02:19:24;;;;;;;;;;;;;;;21.50;59.77;101625.44;4920794;29;2455;-63
2023/09/27 02:21:50;;;;;;;;;;;;;;;21.49;59.76;101624.69;4919696;29;2183;-63
2023/09/27 02:24:17;;;;;;;;;;;;;;;21.48;59.66;101631.84;4921685;29;2336;-63
2023/09/27 02:26:44;;;;;;;;;;;;;;;21.49;59.66;101632.59;4903179;29;2296;-63
2023/09/27 02:29:10;;;;;;;;;;;;;;;21.49;59.94;101636.22;4902008;29;2294;-63
2023/09/27 02:31:37;;;;;;;;;;;;;;;21.49;59.47;101638.38;4919830;29;6398;-63
2023/09/27 02:34:04;;;;;;;;;;;;;;;21.48;59.80;101634.72;4920016;29;2190;-63
2023/09/27 02:36:30;;;;;;;;;;;;;;;21.48;59.76;101631.09;4918927;29;2410;-63
2023/09/27 02:38:57;;;;;;;;;;;;;;;21.48;59.47;101622.44;4921014;29;2379;-63
2023/09/27 02:41:24;;;;;;;;;;;;;;;21.48;59.49;101628.94;4919979;29;2199;-63
2023/09/27 02:43:50;;;;;;;;;;;;;;;21.48;59.57;101636.84;4901627;29;2406;-63
2023/09/27 02:46:17;;;;;;;;;;;;;;;21.48;59.74;101645.50;4917068;29;2360;-63
2023/09/27 02:48:44;;;;;;;;;;;;;;;21.47;59.65;101641.13;4920925;29;2385;-63
2023/09/27 02:51:13;;;;;;;;;;;;;;;21.46;59.83;101640.38;4898796;29;2006;-63
2023/09/27 02:53:40;;;;;;;;;;;;;;;21.48;59.49;101642.63;4920464;29;2396;-63
2023/09/27 02:56:06;;;;;;;;;;;;;;;21.48;59.75;101636.84;4898146;29;2367;-63
2023/09/27 02:58:33;;;;;;;;;;;;;;;21.47;59.48;101629.59;4921521;29;2300;-63
2023/09/27 03:00:59;;;;;;;;;;;;;;;21.47;59.54;101623.84;4896965;29;6462;-63
2023/09/27 03:03:27;;;;;;;;;;;;;;;21.46;59.33;101617.34;4899076;29;1714;-63
2023/09/27 03:05:54;;;;;;;;;;;;;;;21.48;59.92;101613.81;4897016;29;2379;-63
2023/09/27 03:08:20;;;;;;;;;;;;;;;21.46;59.70;101605.03;4904864;29;2310;-63
2023/09/27 03:10:48;;;;;;;;;;;;;;;21.47;59.56;101606.56;4921589;29;2372;-63
2023/09/27 03:13:15;;;;;;;;;;;;;;;21.46;59.64;101596.41;4920814;29;2332;-63
2023/09/27 03:15:43;;;;;;;;;;;;;;;21.46;59.65;101587.75;4903250;29;2765;-63
2023/09/27 03:18:10;;;;;;;;;;;;;;;21.46;59.40;101587.75;4921425;29;1639;-63
2023/09/27 03:20:37;;;;;;;;;;;;;;;21.47;59.32;101589.25;4902190;29;2472;-63
2023/09/27 03:23:03;;;;;;;;;;;;;;;21.46;59.37;101587.75;4921746;29;1732;-63
2023/09/27 03:25:30;;;;;;;;;;;;;;;21.46;59.37;101593.53;4919580;29;2394;-63
2023/09/27 03:27:57;;;;;;;;;;;;;;;21.46;59.22;101593.53;4918988;29;2388;-63
2023/09/27 03:30:25;;;;;;;;;;;;;;;21.46;59.40;101579.09;4917673;29;6086;-63
2023/09/27 03:32:52;;;;;;;;;;;;;;;21.45;59.45;101580.50;4896079;29;2310;-63
2023/09/27 03:35:18;;;;;;;;;;;;;;;21.46;59.38;101584.88;4897030;29;2461;-63
2023/09/27 03:37:45;;;;;;;;;;;;;;;21.45;59.16;101587.00;4901727;29;2189;-63
2023/09/27 03:40:13;;;;;;;;;;;;;;;21.45;59.50;101603.56;4911744;29;2341;-63
2023/09/27 03:42:42;;;;;;;;;;;;;;;21.44;59.52;101611.47;4901844;29;2306;-63
2023/09/27 03:45:09;;;;;;;;;;;;;;;21.45;59.27;101617.97;4916499;29;2614;-63
2023/09/27 03:47:37;;;;;;;;;;;;;;;21.44;59.29;101613.56;4896389;29;2245;-63
2023/09/27 03:50:03;;;;;;;;;;;;;;;21.43;59.57;101601.31;4892751;29;2680;-63
2023/09/27 03:52:30;;;;;;;;;;;;;;;21.43;59.47;101598.44;4897018;29;2311;-63
2023/09/27 03:54:56;;;;;;;;;;;;;;;21.44;59.46;101602.03;4899605;29;2477;-63
2023/09/27 03:57:23;;;;;;;;;;;;;;;21.44;59.49;101608.59;4894134;29;2267;-63
2023/09/27 03:59:50;;;;;;;;;;;;;;;21.44;59.26;101616.47;4914134;29;2271;-63
2023/09/27 04:02:17;;;;;;;;;;;;;;;21.44;59.42;101614.34;4895128;29;6246;-63
2023/09/27 04:04:43;;;;;;;;;;;;;;;21.44;59.19;101607.81;4895868;29;2316;-63
2023/09/27 04:07:10;;;;;;;;;;;;;;;21.44;59.41;101625.09;4917998;29;2458;-64
2023/09/27 04:09:36;;;;;;;;;;;;;;;21.44;59.13;101617.22;4917200;29;2302;-62
2023/09/27 04:12:03;;;;;;;;;;;;;;;21.44;59.16;101616.47;4915858;29;2359;-62
2023/09/27 04:14:29;;;;;;;;;;;;;;;21.43;59.47;101630.13;4917434;29;2699;-63
2023/09/27 04:17:00;;;;;;;;;;;;;;;21.55;59.67;101641.56;4919799;29;2246;-61
2023/09/27 04:19:27;;;;;;;;;;;;;;;21.52;59.00;101639.97;4917157;29;2347;-61
2023/09/27 04:21:53;;;;;;;;;;;;;;;21.49;59.39;101644.13;4919720;29;2245;-61
2023/09/27 04:24:19;;;;;;;;;;;;;;;21.45;59.55;101638.88;4921074;29;2107;-61
2023/09/27 04:26:46;;;;;;;;;;;;;;;21.45;59.53;101650.41;4917307;29;2261;-61
2023/09/27 04:29:12;;;;;;;;;;;;;;;21.45;59.27;101652.53;4917414;29;2530;-61
2023/09/27 04:31:39;;;;;;;;;;;;;;;21.44;59.50;101666.22;4899644;29;6715;-61
2023/09/27 04:34:05;;;;;;;;;;;;;;;21.44;59.51;101662.56;4917299;29;2313;-61
2023/09/27 04:36:32;;;;;;;;;;;;;;;21.43;59.35;101663.97;4920704;29;2181;-61
2023/09/27 04:38:58;;;;;;;;;;;;;;;21.42;59.37;101657.44;4918561;29;2179;-61
2023/09/27 04:41:25;;;;;;;;;;;;;;;21.41;59.58;101655.94;4917988;29;2348;-61
2023/09/27 04:43:52;;;;;;;;;;;;;;;21.41;59.33;101660.97;4913496;29;2320;-61
2023/09/27 04:46:18;;;;;;;;;;;;;;;21.41;59.67;101660.97;4917592;29;2336;-64
2023/09/27 04:48:45;;;;;;;;;;;;;;;21.47;59.28;101661.31;4918748;29;2446;-64
2023/09/27 04:51:11;;;;;;;;;;;;;;;21.40;59.23;101665.22;4918536;29;2773;-64
2023/09/27 04:53:38;;;;;;;;;;;;;;;21.40;59.05;101671.75;4921229;29;1639;-64
2023/09/27 04:56:05;;;;;;;;;;;;;;;21.40;58.68;101676.75;4920663;29;1771;-64
2023/09/27 04:58:31;;;;;;;;;;;;;;;21.41;59.18;101676.09;4920564;29;1608;-64
2023/09/27 05:00:58;;;;;;;;;;;;;;;21.42;59.15;101683.38;4920121;29;6376;-64
2023/09/27 05:03:24;;;;;;;;;;;;;;;21.42;59.07;101686.28;4920391;29;1798;-64
2023/09/27 05:05:51;;;;;;;;;;;;;;;21.43;59.03;101689.88;4921200;29;1660;-64
2023/09/27 05:08:18;;;;;;;;;;;;;;;21.43;58.99;101687.75;4924543;29;1739;-64
2023/09/27 05:10:44;;;;;;;;;;;;;;;21.43;59.26;101687.00;4924816;29;1918;-64
2023/09/27 05:13:10;;;;;;;;;;;;;;;21.42;59.28;101688.41;4923506;29;1636;-64
2023/09/27 05:15:37;;;;;;;;;;;;;;;21.43;59.19;101692.78;4924829;29;1776;-64
2023/09/27 05:18:03;;;;;;;;;;;;;;;21.43;59.24;101698.53;4924566;29;1657;-64
2023/09/27 05:20:30;;;;;;;;;;;;;;;21.41;59.21;101696.28;4918334;29;2175;-64
2023/09/27 05:22:56;;;;;;;;;;;;;;;21.42;59.05;101702.81;4922117;29;2409;-64
2023/09/27 05:25:23;;;;;;;;;;;;;;;21.42;58.88;101697.78;4923060;29;2061;-64
2023/09/27 05:27:49;;;;;;;;;;;;;;;21.41;59.18;101698.41;4921242;29;2283;-64
2023/09/27 05:30:19;;;;;;;;;;;;;;;21.41;59.30;101701.31;4920112;29;6105;-64
2023/09/27 05:32:46;;;;;;;;;;;;;;;21.41;59.06;101704.94;4920679;29;2209;-64
2023/09/27 05:35:12;;;;;;;;;;;;;;;21.41;59.02;101712.81;4923164;29;2334;-64
2023/09/27 05:37:45;;;;;;;;;;;;;;;21.40;59.05;101717.06;4920715;29;2155;-64
2023/09/27 05:40:11;;;;;;;;;;;;;;;21.41;58.50;101712.81;4924381;29;2437;-64
2023/09/27 05:42:38;;;;;;;;;;;;;;;21.45;57.56;101713.81;4924460;29;1787;-64
2023/09/27 05:45:05;;;;;;;;;;;;;;;21.52;57.06;101723.53;4922807;29;2180;-64
2023/09/27 05:47:32;;;;;;;;;;;;;;;21.46;56.94;101731.84;4924161;29;1881;-64
2023/09/27 05:49:58;;;;;;;;;;;;;;;21.42;57.07;101737.38;4923100;29;1911;-64
2023/09/27 05:52:25;;;;;;;;;;;;;;;21.34;56.71;101744.16;4924153;29;1814;-64
2023/09/27 05:54:51;;;;;;;;;;;;;;;21.32;56.68;101741.16;4922882;29;1597;-64
2023/09/27 05:57:18;;;;;;;;;;;;;;;21.30;56.56;101746.03;4924387;29;1814;-64
2023/09/27 05:59:44;;;;;;;;;;;;;;;21.27;56.33;101748.06;4923609;29;1526;-64
2023/09/27 06:02:16;;;;;;;;;;;;;;;21.26;56.49;101743.69;4917983;28;6023;-64
2023/09/27 06:04:46;;;;;;;;;;;;;;;21.28;56.21;101751.69;4899356;29;2302;-64
2023/09/27 06:07:17;;;;;;;;;;;;;;;21.27;56.06;101750.94;4923635;29;1632;-64
2023/09/27 06:09:43;;;;;;;;;;;;;;;21.06;56.07;101754.06;4922942;29;2189;-67
2023/09/27 06:12:10;;;;;;;;;;;;;;;19.76;58.45;101753.44;4922476;29;2230;-66
2023/09/27 06:14:36;;;;;;;;;;;;;;;19.32;59.47;101752.81;4922566;29;2112;-62
2023/09/27 06:17:03;;;;;;;;;;;;;;;19.06;60.15;101754.72;4905407;29;1629;-62
2023/09/27 06:19:30;;;;;;;;;;;;;;;18.95;60.75;101755.41;4922728;29;1803;-62
2023/09/27 06:21:58;;;;;;;;;;;;;;;18.99;61.20;101749.94;4922760;29;1629;-62
2023/09/27 06:24:26;;;;;;;;;;;;;;;18.70;62.14;101753.75;4922638;29;2229;-62
2023/09/27 06:26:52;;;;;;;;;;;;;;;18.86;62.16;101751.25;4922459;29;2049;-62
2023/09/27 06:29:19;;;;;;;;;;;;;;;18.88;62.34;101750.63;4921207;29;2293;-62
2023/09/27 06:31:50;;;;;;;;;;;;;;;19.00;62.86;101749.31;4920177;29;6420;-62
2023/09/27 06:34:16;;;;;;;;;;;;;;;19.08;62.79;101757.72;4923551;29;2063;-62
2023/09/27 06:36:43;;;;;;;;;;;;;;;19.11;63.21;101759.34;4922921;29;1655;-62
2023/09/27 06:39:16;;;;;;;;;;;;;;;19.04;63.95;101763.19;4922480;29;2003;-62
2023/09/27 06:41:45;;;;;;;;;;;;;;;19.11;64.47;101761.47;4923180;29;1700;-62
2023/09/27 06:44:13;;;;;;;;;;;;;;;19.21;64.35;101762.88;4900024;29;1665;-62
2023/09/27 06:46:40;;;;;;;;;;;;;;;19.21;65.04;101760.00;4917403;29;2196;-67
2023/09/27 06:49:14;;;;;;;;;;;;;;;19.59;63.58;101766.75;4915600;29;2377;-68
2023/09/27 06:51:43;;;;;;;;;;;;;;;19.99;62.00;101759.19;4914549;29;2629;-67
2023/09/27 06:54:09;;;;;;;;;;;;;;;20.19;61.58;101758.97;4912561;29;2358;-67
2023/09/27 06:56:36;;;;;;;;;;;;;;;20.29;60.87;101765.31;4911399;29;2201;-68
2023/09/27 06:59:02;;;;;;;;;;;;;;;20.33;60.92;101759.81;4912510;29;2558;-67
2023/09/27 07:01:30;;;;;;;;;;;;;;;20.36;60.81;101758.56;4908188;29;6456;-68
2023/09/27 07:03:56;;;;;;;;;;;;;;;20.42;60.62;101764.69;4914843;29;2542;-67
2023/09/27 07:06:23;;;;;;;;;;;;;;;20.45;60.27;101757.69;4920627;29;2195;-67
2023/09/27 07:08:52;;;;;;;;;;;;;;;20.47;60.37;101754.94;4922011;29;1791;-68
2023/09/27 07:11:19;;;;;;;;;;;;;;;20.49;60.26;101752.16;4921868;29;1974;-67
2023/09/27 07:13:46;;;;;;;;;;;;;;;20.53;60.34;101756.69;4922392;29;1647;-68
2023/09/27 07:16:26;;;;;;;;;;;;;;;20.57;59.85;101754.06;4922114;29;1727;-67
2023/09/27 07:18:52;;;;;;;;;;;;;;;20.60;59.85;101755.69;4920685;29;1744;-67
2023/09/27 07:21:24;;;;;;;;;;;;;;;20.63;59.71;101754.44;4921895;29;1818;-67
2023/09/27 07:23:54;;;;;;;;;;;;;;;20.62;60.07;101745.06;4921551;29;1656;-67
2023/09/27 07:26:20;;;;;;;;;;;;;;;20.65;59.63;101740.91;4921145;29;1614;-67
2023/09/27 07:28:47;;;;;;;;;;;;;;;20.68;59.50;101744.66;4921136;29;1818;-67
2023/09/27 07:31:16;;;;;;;;;;;;;;;20.70;59.80;101747.66;4921581;29;6263;-67
2023/09/27 07:33:43;;;;;;;;;;;;;;;20.70;59.61;101739.75;4922206;29;1735;-67
2023/09/27 07:36:11;;;;;;;;;;;;;;;20.72;59.51;101742.03;4921274;29;1653;-67
2023/09/27 07:38:39;;;;;;;;;;;;;;;20.75;59.40;101743.63;4921802;29;1763;-67
2023/09/27 07:41:06;;;;;;;;;;;;;;;20.76;59.64;101750.91;4921233;29;1576;-67
2023/09/27 07:43:33;;;;;;;;;;;;;;;20.77;59.49;101754.53;4921364;29;1807;-67
2023/09/27 07:46:06;;;;;;;;;;;;;;;20.78;59.66;101751.03;4920624;29;1549;-68
2023/09/27 07:48:37;;;;;;;;;;;;;;;20.80;59.53;101756.13;4922529;29;1659;-68
2023/09/27 07:51:11;;;;;;;;;;;;;;;20.80;59.67;101745.38;4920856;29;1981;-68
2023/09/27 07:53:38;;;;;;;;;;;;;;;20.82;59.63;101736.09;4921881;29;1715;-67
2023/09/27 07:56:06;;;;;;;;;;;;;;;20.81;59.60;101738.25;4920398;29;1639;-68
2023/09/27 07:58:33;;;;;;;;;;;;;;;20.83;59.43;101741.25;4921239;29;1664;-66
2023/09/27 08:00:59;;;;;;;;;;;;;;;20.84;59.41;101742.72;4920305;29;6388;-68
2023/09/27 08:03:27;;;;;;;;;;;;;;;20.85;59.53;101741.38;4920677;29;1826;-68
2023/09/27 08:05:53;;;;;;;;;;;;;;;20.86;59.33;101737.09;4920840;29;1628;-67
2023/09/27 08:08:21;;;;;;;;;;;;;;;20.87;59.17;101732.84;4920035;29;1662;-67
2023/09/27 08:10:49;;;;;;;;;;;;;;;20.89;59.16;101740.84;4920236;29;1908;-67
2023/09/27 08:13:17;;;;;;;;;;;;;;;20.89;59.52;101741.59;4920403;29;1816;-68
2023/09/27 08:15:44;;;;;;;;;;;;;;;20.91;59.51;101750.38;4920228;29;1611;-67
2023/09/27 08:18:10;;;;;;;;;;;;;;;20.91;59.26;101759.00;4920531;29;1598;-67
2023/09/27 08:20:37;;;;;;;;;;;;;;;20.91;59.12;101756.13;4920543;29;1627;-67
2023/09/27 08:23:03;;;;;;;;;;;;;;;20.93;59.37;101758.34;4920708;29;1627;-67
2023/09/27 08:25:30;;;;;;;;;;;;;;;20.93;59.50;101756.22;4920185;29;1952;-67
2023/09/27 08:27:56;;;;;;;;;;;;;;;20.94;59.29;101748.34;4920688;29;1672;-68
2023/09/27 08:30:23;;;;;;;;;;;;;;;20.96;59.26;101748.47;4903180;29;6270;-68
2023/09/27 08:32:49;;;;;;;;;;;;;;;20.97;59.40;101752.09;4920676;29;1961;-67
2023/09/27 08:35:16;;;;;;;;;;;;;;;20.98;59.36;101756.44;4920227;29;1783;-67
2023/09/27 08:37:43;;;;;;;;;;;;;;;20.99;59.39;101757.97;4920140;29;1640;-67
2023/09/27 08:40:12;;;;;;;;;;;;;;;20.99;59.16;101749.34;4919961;29;1858;-67
2023/09/27 08:42:40;;;;;;;;;;;;;;;21.00;59.18;101756.56;4919832;29;1604;-67
2023/09/27 08:45:09;;;;;;;;;;;;;;;21.00;59.20;101745.06;4920240;29;1595;-67
2023/09/27 08:47:35;;;;;;;;;;;;;;;21.00;59.36;101745.06;4919955;29;1620;-67
2023/09/27 08:50:02;;;;;;;;;;;;;;;21.02;59.15;101750.94;4920625;29;1573;-67
2023/09/27 08:52:28;;;;;;;;;;;;;;;21.03;59.05;101753.19;4920264;29;1991;-67
2023/09/27 08:54:55;;;;;;;;;;;;;;;21.04;59.00;101748.19;4920256;29;1576;-67
2023/09/27 08:57:22;;;;;;;;;;;;;;;21.05;59.10;101741.03;4897066;29;1690;-67
2023/09/27 08:59:48;;;;;;;;;;;;;;;21.05;59.28;101746.78;4902863;29;1557;-67
2023/09/27 09:02:15;;;;;;;;;;;;;;;21.05;59.28;101743.91;4897349;29;6123;-67
2023/09/27 09:04:42;;;;;;;;;;;;;;;21.05;59.27;101746.78;4901676;29;1752;-67
2023/09/27 09:07:08;;;;;;;;;;;;;;;21.06;59.06;101748.31;4903430;29;1820;-67
2023/09/27 09:09:35;;;;;;;;;;;;;;;21.06;59.08;101749.03;4920438;29;1880;-67
2023/09/27 09:12:08;;;;;;;;;;;;;;;21.07;59.08;101744.03;4920747;29;1978;-67
2023/09/27 09:14:39;;;;;;;;;;;;;;;21.09;59.03;101747.75;4920264;29;1584;-67
2023/09/27 09:17:08;;;;;;;;;;;;;;;21.10;59.33;101746.41;4920273;29;1601;-67
2023/09/27 09:19:38;;;;;;;;;;;;;;;21.11;59.22;101744.25;4919918;29;1576;-67
2023/09/27 09:22:12;;;;;;;;;;;;;;;21.10;58.99;101740.63;4919862;29;1583;-67
2023/09/27 09:24:43;;;;;;;;;;;;;;;21.10;59.04;101732.00;4920842;29;1604;-67
2023/09/27 09:27:13;;;;;;;;;;;;;;;21.12;58.99;101728.50;4920364;29;1799;-67
2023/09/27 09:29:42;;;;;;;;;;;;;;;21.13;59.05;101718.47;4920104;29;1780;-67
2023/09/27 09:32:09;;;;;;;;;;;;;;;21.13;59.22;101724.22;4920086;29;6089;-67
2023/09/27 09:34:42;;;;;;;;;;;;;;;21.13;58.91;101718.47;4920463;29;1716;-67
2023/09/27 09:37:15;;;;;;;;;;;;;;;21.14;59.20;101725.72;4919775;29;1728;-67
2023/09/27 09:39:41;;;;;;;;;;;;;;;21.14;59.11;101714.19;4920274;29;1732;-67
2023/09/27 09:42:08;;;;;;;;;;;;;;;21.16;59.26;101722.94;4897677;29;1590;-67
2023/09/27 09:44:35;;;;;;;;;;;;;;;21.16;59.07;101710.69;4920867;29;1724;-67
2023/09/27 09:47:11;;;;;;;;;;;;;;;21.17;59.09;101712.94;4901687;29;1868;-67
2023/09/27 09:49:38;;;;;;;;;;;;;;;21.16;59.38;101711.44;4920103;29;1660;-67
2023/09/27 09:52:05;;;;;;;;;;;;;;;21.16;59.25;101705.66;4918876;29;2193;-67
2023/09/27 09:54:37;;;;;;;;;;;;;;;21.14;59.26;101708.44;4921413;29;2198;-66
2023/09/27 09:57:04;;;;;;;;;;;;;;;21.16;59.40;101702.78;4920464;29;2257;-68
2023/09/27 09:59:49;;;;;;;;;;;;;;;21.21;59.90;101698.00;4923800;29;1639;-67
2023/09/27 10:02:20;;;;;;;;;;;;;;;21.21;59.86;101700.88;4921490;29;6347;-68
2023/09/27 10:04:47;;;;;;;;;;;;;;;21.24;59.80;101696.75;4919848;29;2582;-67
2023/09/27 10:07:13;;;;;;;;;;;;;;;21.22;60.07;101694.50;4898493;29;2348;-68
2023/09/27 10:09:40;;;;;;;;;;;;;;;21.23;59.66;101681.56;4897883;29;2200;-67
2023/09/27 10:12:07;;;;;;;;;;;;;;;21.24;59.91;101688.84;4902533;29;2224;-67
2023/09/27 10:14:33;;;;;;;;;;;;;;;21.24;59.65;101688.84;4920274;29;2464;-68
2023/09/27 10:17:01;;;;;;;;;;;;;;;21.20;60.06;101685.75;4917651;29;2258;-67
2023/09/27 10:19:28;;;;;;;;;;;;;;;21.22;59.87;101679.34;4922832;29;2213;-67
2023/09/27 10:22:04;;;;;;;;;;;;;;;21.25;60.38;101681.69;4919937;29;2263;-68
2023/09/27 10:24:33;;;;;;;;;;;;;;;21.27;60.62;101681.06;4919264;29;2186;-70
2023/09/27 10:26:59;;;;;;;;;;;;;;;21.28;60.40;101677.56;4920456;29;2380;-67
2023/09/27 10:29:26;;;;;;;;;;;;;;;21.28;60.96;101677.56;4916982;29;2623;-67
2023/09/27 10:31:56;;;;;;;;;;;;;;;21.31;61.02;101670.50;4921824;29;6388;-67
2023/09/27 10:34:25;;;;;;;;;;;;;;;21.33;60.86;101673.50;4921356;29;2139;-67
2023/09/27 10:36:52;;;;;;;;;;;;;;;21.33;60.97;101679.28;4920950;29;2146;-67
2023/09/27 10:39:38;;;;;;;;;;;;;;;21.33;61.49;101667.75;4920858;29;2662;-67
2023/09/27 10:42:05;;;;;;;;;;;;;;;21.37;61.31;101661.44;4919054;29;2306;-67
2023/09/27 10:44:33;;;;;;;;;;;;;;;21.39;61.71;101670.19;4918777;29;2308;-67
2023/09/27 10:47:03;;;;;;;;;;;;;;;21.41;61.47;101660.97;4917668;29;2262;-68
2023/09/27 10:49:38;;;;;;;;;;;;;;;21.41;61.46;101666.72;4918920;29;2377;-68
2023/09/27 10:52:14;;;;;;;;;;;;;;;21.44;61.81;101662.56;4920298;29;2087;-67
2023/09/27 10:54:40;;;;;;;;;;;;;;;21.47;61.83;101652.66;4922163;29;1608;-67
2023/09/27 10:57:07;;;;;;;;;;;;;;;21.47;61.66;101652.66;4919777;29;2215;-68
2023/09/27 10:59:33;;;;;;;;;;;;;;;21.45;62.17;101643.91;4921215;29;2256;-68
2023/09/27 11:02:02;;;;;;;;;;;;;;;21.47;62.19;101646.91;4919519;29;6348;-66
2023/09/27 11:04:30;;;;;;;;;;;;;;;21.47;61.81;101641.88;4919971;29;2154;-67
2023/09/27 11:06:56;;;;;;;;;;;;;;;21.50;62.09;101645.63;4917251;29;2158;-68
2023/09/27 11:09:23;;;;;;;;;;;;;;;21.51;62.19;101641.34;4919985;29;2183;-67
2023/09/27 11:11:50;;;;;;;;;;;;;;;21.51;62.39;101650.00;4917897;29;2191;-67
2023/09/27 11:14:31;;;;;;;;;;;;;;;21.53;62.20;101647.97;4917428;29;2175;-68
2023/09/27 11:17:16;;;;;;;;;;;;;;;21.54;62.44;101637.94;4921891;29;1953;-67
2023/09/27 11:19:43;;;;;;;;;;;;;;;21.55;62.53;101647.31;4917836;29;2194;-67
2023/09/27 11:22:09;;;;;;;;;;;;;;;21.57;62.21;101638.78;4920842;29;2052;-67
2023/09/27 11:24:37;;;;;;;;;;;;;;;21.59;62.29;101647.53;4918124;29;2080;-68
2023/09/27 11:27:03;;;;;;;;;;;;;;;21.61;62.22;101641.88;4919687;29;2167;-68
2023/09/27 11:29:29;;;;;;;;;;;;;;;21.62;62.24;101631.84;4919723;29;2001;-67
2023/09/27 11:31:57;;;;;;;;;;;;;;;21.61;62.41;101639.00;4915761;29;6604;-68
2023/09/27 11:34:23;;;;;;;;;;;;;;;21.67;62.37;101624.94;4919532;29;2127;-68
2023/09/27 11:36:51;;;;;;;;;;;;;;;21.65;62.57;101621.19;4914722;29;2238;-68
2023/09/27 11:39:18;;;;;;;;;;;;;;;21.65;62.29;101626.97;4921402;29;2306;-68
2023/09/27 11:41:45;;;;;;;;;;;;;;;21.66;62.16;101632.06;4921534;29;1814;-68
2023/09/27 11:44:21;;;;;;;;;;;;;;;21.66;62.18;101634.22;4919094;29;2087;-67
2023/09/27 11:46:49;;;;;;;;;;;;;;;21.70;62.01;101634.44;4917868;29;2213;-67
2023/09/27 11:49:20;;;;;;;;;;;;;;;21.72;61.94;101632.41;4920981;29;1846;-67
2023/09/27 11:51:47;;;;;;;;;;;;;;;21.72;62.11;101620.88;4901245;29;2161;-67
2023/09/27 11:54:14;;;;;;;;;;;;;;;21.74;62.22;101620.25;4918149;29;1572;-67
2023/09/27 11:56:41;;;;;;;;;;;;;;;21.72;62.19;101629.53;4920238;29;2311;-67
2023/09/27 11:59:07;;;;;;;;;;;;;;;21.75;61.65;101619.59;4919687;29;2027;-66
2023/09/27 12:01:34;;;;;;;;;;;;;;;21.75;61.55;101619.59;4920282;29;6281;-66
2023/09/27 12:04:02;;;;;;;;;;;;;;;21.73;61.69;101612.97;4916040;29;2281;-67
2023/09/27 12:06:32;;;;;;;;;;;;;;;21.73;61.76;101616.59;4899676;29;2482;-67
2023/09/27 12:08:59;;;;;;;;;;;;;;;21.74;61.54;101606.56;4921015;29;1888;-67
2023/09/27 12:11:27;;;;;;;;;;;;;;;21.77;61.59;101606.69;4918698;29;2250;-67
2023/09/27 12:13:54;;;;;;;;;;;;;;;21.74;61.42;101605.81;4919333;29;1922;-67
2023/09/27 12:16:21;;;;;;;;;;;;;;;21.75;61.36;101607.31;4918867;29;2069;-71
2023/09/27 12:18:48;;;;;;;;;;;;;;;21.77;61.37;101603.78;4917488;29;2083;-71
2023/09/27 12:21:14;;;;;;;;;;;;;;;21.80;61.30;101608.25;4920242;29;2185;-63
2023/09/27 12:23:41;;;;;;;;;;;;;;;21.82;61.30;101593.97;4917884;29;2103;-63
2023/09/27 12:26:09;;;;;;;;;;;;;;;21.80;61.50;101590.97;4920461;29;2040;-63
2023/09/27 12:28:37;;;;;;;;;;;;;;;21.84;61.27;101586.16;4916041;29;2100;-63
2023/09/27 12:31:06;;;;;;;;;;;;;;;21.84;61.26;101579.66;4917148;29;7251;-63
2023/09/27 12:33:34;;;;;;;;;;;;;;;21.86;61.36;101577.63;4916358;29;2055;-64
2023/09/27 12:36:01;;;;;;;;;;;;;;;21.88;61.56;101579.88;4920215;29;2353;-63
2023/09/27 12:38:27;;;;;;;;;;;;;;;21.90;61.58;101577.09;4918155;29;2067;-63
2023/09/27 12:40:54;;;;;;;;;;;;;;;21.91;61.87;101572.81;4916074;29;2171;-63
2023/09/27 12:43:21;;;;;;;;;;;;;;;21.91;61.65;101575.69;4917010;29;2276;-63
2023/09/27 12:45:47;;;;;;;;;;;;;;;21.92;61.75;101574.28;4919386;29;2204;-63
2023/09/27 12:48:14;;;;;;;;;;;;;;;21.93;61.95;101570.03;4917804;29;2068;-63
2023/09/27 12:50:40;;;;;;;;;;;;;;;21.96;61.79;101560.09;4918161;29;2048;-63